Time;durP1;ratioP1;P1;durP2;ratioP2;P2;SDS_P1;SDS_P2;PMS_P1;PMS_P2;Temp;Humidity;BMP_temperature;BMP_pressure;BME280_temperature;BME280_humidity;BME280_pressure;Samples;Min_cycle;Max_cycle;Signal;HPM_P1;HPM_P2
2022/03/20 00:01:43;;;;;;;74.78;46.88;;;0.50;2201.60;;;;;;5114833;27;20494;-78
2022/03/20 00:04:09;;;;;;;77.35;47.42;;;0.50;2201.60;;;;;;5115573;27;20035;-77
2022/03/20 00:06:35;;;;;;;82.78;49.10;;;0.40;2201.60;;;;;;5134164;27;20028;-76
2022/03/20 00:09:00;;;;;;;83.55;46.67;;;0.30;2201.60;;;;;;5114534;27;20027;-79
2022/03/20 00:11:28;;;;;;;81.75;48.30;;;0.30;2201.60;;;;;;5133229;27;20023;-78
2022/03/20 00:13:54;;;;;;;73.07;40.63;;;0.40;2201.60;;;;;;5133856;27;20419;-77
2022/03/20 00:16:23;;;;;;;82.53;46.75;;;0.40;2201.60;;;;;;5133994;27;20025;-79
2022/03/20 00:18:49;;;;;;;61.53;37.53;;;0.40;2201.60;;;;;;5134123;27;20479;-77
2022/03/20 00:21:14;;;;;;;67.25;37.80;;;0.40;2201.60;;;;;;5132981;27;20023;-77
2022/03/20 00:23:40;;;;;;;56.83;34.80;;;0.50;2201.60;;;;;;5133515;27;20050;-78
2022/03/20 00:26:06;;;;;;;61.35;37.55;;;0.20;2201.60;;;;;;5133697;27;20023;-77
2022/03/20 00:28:32;;;;;;;59.97;34.70;;;0.20;2201.60;;;;;;5110201;27;20450;-76
2022/03/20 00:30:58;;;;;;;64.53;34.42;;;0.20;2201.60;;;;;;5133650;27;20019;-79
2022/03/20 00:33:24;;;;;;;55.38;35.97;;;0.30;2201.60;;;;;;5121457;27;20026;-76
2022/03/20 00:35:50;;;;;;;132.60;73.50;;;0.20;2201.60;;;;;;5098703;28;20015;-76
2022/03/20 00:38:16;;;;;;;150.45;84.47;;;0.20;2201.60;;;;;;5099030;28;20386;-77
2022/03/20 00:40:43;;;;;;;129.35;73.90;;;;;;;;;;5112212;28;20038;-77
2022/03/20 00:43:10;;;;;;;148.98;80.13;;;0.30;2201.60;;;;;;5112074;28;20577;-77
2022/03/20 00:45:35;;;;;;;151.55;90.00;;;0.40;2201.60;;;;;;5111762;28;20027;-75
2022/03/20 00:48:02;;;;;;;146.35;79.25;;;0.20;2201.60;;;;;;5093724;28;20381;-76
2022/03/20 00:50:28;;;;;;;143.45;81.80;;;0.10;2201.60;;;;;;5093502;28;20027;-77
2022/03/20 00:52:55;;;;;;;152.07;85.57;;;0.10;2201.60;;;;;;5096500;27;20028;-77
2022/03/20 00:55:20;;;;;;;152.02;85.60;;;0.10;2201.60;;;;;;5114516;27;20386;-77
2022/03/20 00:57:46;;;;;;;123.07;74.40;;;0.00;2201.60;;;;;;5112306;28;20023;-76
2022/03/20 01:00:12;;;;;;;141.35;78.75;;;0.00;2201.60;;;;;;5093262;28;20026;-76
2022/03/20 01:02:43;;;;;;;144.38;81.80;;;0.00;2201.60;;;;;;5096205;28;20028;-76
2022/03/20 01:05:09;;;;;;;119.00;68.75;;;12.90;2201.60;;;;;;5093485;28;20027;-76
2022/03/20 01:07:38;;;;;;;111.43;64.97;;;12.90;2201.60;;;;;;5111725;28;20069;-77
2022/03/20 01:10:05;;;;;;;101.93;60.13;;;;;;;;;;5093153;28;20019;-76
2022/03/20 01:12:33;;;;;;;92.30;54.28;;;;;;;;;;5096344;28;20110;-76
2022/03/20 01:14:59;;;;;;;83.68;52.00;;;;;;;;;;5114588;28;20039;-76
2022/03/20 01:17:25;;;;;;;78.97;47.35;;;12.90;2201.60;;;;;;5093462;28;20097;-76
2022/03/20 01:19:51;;;;;;;81.85;42.53;;;;;;;;;;5095684;28;20478;-78
2022/03/20 01:22:17;;;;;;;70.53;41.10;;;13.20;2201.60;;;;;;5112064;28;20069;-81
2022/03/20 01:24:42;;;;;;;69.00;42.92;;;13.30;2201.60;;;;;;5098481;28;20047;-77
2022/03/20 01:27:09;;;;;;;84.32;48.60;;;;;;;;;;5097726;28;20048;-77
2022/03/20 01:29:35;;;;;;;69.03;42.67;;;;;;;;;;5098469;28;20447;-76
2022/03/20 01:32:02;;;;;;;68.85;41.45;;;;;;;;;;5116137;28;20034;-75
2022/03/20 01:34:28;;;;;;;56.78;35.83;;;;;;;;;;5116102;28;20020;-76
2022/03/20 01:36:54;;;;;;;59.17;34.78;;;13.20;2201.60;;;;;;5118500;27;20057;-77
2022/03/20 01:39:20;;;;;;;49.75;30.73;;;13.40;2201.60;;;;;;5115145;28;20039;-79
2022/03/20 01:41:47;;;;;;;53.22;31.25;;;;;;;;;;5115601;27;20027;-76
2022/03/20 01:44:13;;;;;;;57.25;34.15;;;13.50;2201.60;;;;;;5100110;27;20027;-80
2022/03/20 01:46:39;;;;;;;59.70;33.13;;;13.50;2201.60;;;;;;5120659;27;20505;-79
2022/03/20 01:49:05;;;;;;;59.25;33.28;;;13.60;2201.60;;;;;;5120009;27;20048;-77
2022/03/20 01:54:15;;;;;;;57.85;33.03;;;38.40;2201.60;;;;;;5118385;27;20104;-78
2022/03/20 01:56:46;;;;;;;54.45;32.88;;;38.40;2201.60;;;;;;5119109;27;20099;-79
2022/03/20 01:59:14;;;;;;;50.83;28.98;;;38.40;2201.60;;;;;;5098297;28;20089;-81
2022/03/20 02:01:40;;;;;;;54.97;32.72;;;38.50;2201.60;;;;;;5115416;27;20065;-77
2022/03/20 02:04:05;;;;;;;57.72;34.33;;;38.60;2201.60;;;;;;5099697;28;20039;-77
2022/03/20 02:06:32;;;;;;;57.45;31.83;;;38.50;2201.60;;;;;;5105502;27;20026;-78
2022/03/20 02:08:57;;;;;;;54.10;29.77;;;38.50;2201.60;;;;;;5123743;27;20038;-77
2022/03/20 02:11:27;;;;;;;44.92;28.02;;;38.40;2201.60;;;;;;5120746;27;20020;-77
2022/03/20 02:13:53;;;;;;;54.05;31.25;;;;;;;;;;5115495;28;20051;-77
2022/03/20 02:16:19;;;;;;;49.33;28.20;;;;;;;;;;5096612;28;20065;-77
2022/03/20 02:18:46;;;;;;;45.25;26.70;;;;;;;;;;5114931;28;20016;-75
2022/03/20 02:21:15;;;;;;;44.65;23.95;;;;;;;;;;5114764;28;20020;-77
2022/03/20 02:23:42;;;;;;;53.78;29.73;;;;;;;;;;5096479;28;20032;-76
2022/03/20 02:26:08;;;;;;;46.65;27.88;;;;;;;;;;5099042;28;20019;-77
2022/03/20 02:28:34;;;;;;;43.97;25.90;;;;;;;;;;5115871;27;20067;-77
2022/03/20 02:30:59;;;;;;;44.47;21.70;;;38.50;2201.60;;;;;;5096322;28;20146;-77
2022/03/20 02:33:27;;;;;;;38.15;25.27;;;38.70;2201.60;;;;;;5099365;27;20064;-77
2022/03/20 02:35:54;;;;;;;32.83;23.23;;;38.80;2201.60;;;;;;5096031;28;20019;-77
2022/03/20 02:38:21;;;;;;;32.30;18.30;;;38.70;2201.60;;;;;;5098905;28;20020;-78
2022/03/20 02:40:54;;;;;;;37.10;20.70;;;38.80;2201.60;;;;;;5096273;28;20026;-78
2022/03/20 02:43:20;;;;;;;29.08;18.48;;;38.80;2201.60;;;;;;5101319;28;20047;-81
2022/03/20 02:45:47;;;;;;;31.88;19.38;;;38.80;2201.60;;;;;;5117274;27;20446;-79
2022/03/20 02:48:13;;;;;;;33.30;20.67;;;38.80;2201.60;;;;;;5115040;28;20023;-84
2022/03/20 02:50:40;;;;;;;30.70;17.98;;;38.90;2201.60;;;;;;5114982;28;20019;-85
2022/03/20 02:53:14;;;;;;;32.50;19.83;;;38.90;2201.60;;;;;;5100056;28;20019;-88
2022/03/20 02:55:45;;;;;;;41.13;21.85;;;39.00;2201.60;;;;;;5100302;28;20016;-87
2022/03/20 02:58:16;;;;;;;27.95;17.35;;;39.00;2201.60;;;;;;5099520;28;20033;-88
2022/03/20 03:00:43;;;;;;;28.30;17.63;;;;;;;;;;5100328;28;20023;-88
2022/03/20 03:03:13;;;;;;;30.85;19.25;;;;;;;;;;5115148;28;20028;-89
2022/03/20 03:05:40;;;;;;;33.53;20.42;;;;;;;;;;5115121;27;20043;-87
2022/03/20 03:11:01;;;;;;;39.53;23.25;;;39.10;2201.60;;;;;;5120586;27;20027;-88
2022/03/20 03:13:38;;;;;;;27.45;19.40;;;39.10;2201.60;;;;;;5114745;28;20019;-88
2022/03/20 03:16:09;;;;;;;33.70;20.38;;;39.00;2201.60;;;;;;5114782;27;20031;-89
2022/03/20 03:18:36;;;;;;;31.35;18.92;;;39.00;2201.60;;;;;;5114665;28;20016;-86
2022/03/20 03:21:03;;;;;;;28.25;16.52;;;39.00;2201.60;;;;;;5117437;27;20108;-83
2022/03/20 03:23:29;;;;;;;31.63;18.65;;;39.10;2201.60;;;;;;5099211;28;20066;-88
2022/03/20 03:25:56;;;;;;;25.08;15.88;;;39.10;2201.60;;;;;;5114778;28;20020;-87
2022/03/20 03:28:28;;;;;;;26.00;18.80;;;39.10;2201.60;;;;;;5121478;27;20110;-88
2022/03/20 03:30:54;;;;;;;29.95;18.13;;;39.20;2201.60;;;;;;5119574;27;20022;-87
2022/03/20 03:33:21;;;;;;;28.33;18.35;;;39.30;2201.60;;;;;;5096068;28;20020;-87
2022/03/20 03:35:53;;;;;;;31.08;19.80;;;39.30;2201.60;;;;;;5096535;28;20672;-85
2022/03/20 03:38:26;;;;;;;31.90;19.80;;;64.00;2201.60;;;;;;5095803;28;20107;-87
2022/03/20 03:40:52;;;;;;;29.40;18.33;;;64.10;2201.60;;;;;;5113883;28;20466;-88
2022/03/20 03:43:19;;;;;;;27.50;16.33;;;64.10;2201.60;;;;;;5119751;27;20075;-86
2022/03/20 03:45:46;;;;;;;26.85;16.08;;;64.20;2201.60;;;;;;5098831;28;20019;-80
2022/03/20 03:48:13;;;;;;;27.17;17.25;;;64.20;2201.60;;;;;;5097879;28;20091;-88
2022/03/20 03:50:41;;;;;;;25.17;17.30;;;64.20;2201.60;;;;;;5095901;28;20016;-88
2022/03/20 03:53:09;;;;;;;29.15;17.90;;;64.30;2201.60;;;;;;5116758;27;20019;-86
2022/03/20 03:55:36;;;;;;;24.48;14.90;;;64.30;2201.60;;;;;;5095991;28;20068;-88
2022/03/20 03:58:03;;;;;;;22.15;14.43;;;64.40;2201.60;;;;;;5113992;28;20019;-87
2022/03/20 04:00:32;;;;;;;24.52;16.75;;;64.50;2201.60;;;;;;5114033;27;20046;-87
2022/03/20 04:02:59;;;;;;;27.95;17.60;;;64.50;2201.60;;;;;;5095893;28;20065;-86
2022/03/20 04:05:25;;;;;;;30.00;15.55;;;64.50;2201.60;;;;;;5101490;28;20024;-88
2022/03/20 04:07:51;;;;;;;27.20;17.25;;;64.60;2201.60;;;;;;5096027;27;20023;-86
2022/03/20 04:10:17;;;;;;;28.35;16.77;;;64.60;2201.60;;;;;;5101306;27;20026;-88
2022/03/20 04:12:44;;;;;;;26.65;17.90;;;64.50;2201.60;;;;;;5095587;28;20062;-89
2022/03/20 04:15:14;;;;;;;25.52;13.90;;;64.50;2201.60;;;;;;5097176;27;20019;-87
2022/03/20 04:17:41;;;;;;;25.15;16.63;;;64.70;2201.60;;;;;;5098697;28;20019;-87
2022/03/20 04:20:07;;;;;;;28.05;17.00;;;64.60;2201.60;;;;;;5099705;27;20026;-89
2022/03/20 04:22:36;;;;;;;28.00;15.95;;;64.60;2201.60;;;;;;5114997;27;20020;-90
2022/03/20 04:25:03;;;;;;;22.02;13.48;;;64.70;2201.60;;;;;;5119708;27;20027;-89
2022/03/20 04:27:29;;;;;;;21.90;12.55;;;64.70;2201.60;;;;;;5097465;28;20474;-88
2022/03/20 04:29:55;;;;;;;26.98;15.27;;;64.90;2201.60;;;;;;5117556;27;20079;-88
2022/03/20 04:32:21;;;;;;;25.77;15.32;;;64.90;2201.60;;;;;;5113544;28;20514;-88
2022/03/20 04:34:47;;;;;;;24.98;15.95;;;64.90;2201.60;;;;;;5113362;28;20023;-88
2022/03/20 04:37:13;;;;;;;23.73;14.40;;;64.90;2201.60;;;;;;5116052;27;20050;-89
2022/03/20 04:39:39;;;;;;;29.67;16.17;;;64.80;2201.60;;;;;;5113264;27;20071;-89
2022/03/20 04:42:06;;;;;;;25.33;14.25;;;64.80;2201.60;;;;;;5097809;28;20023;-88
2022/03/20 04:44:32;;;;;;;25.25;15.65;;;64.80;2201.60;;;;;;5115200;27;20033;-89
2022/03/20 04:46:58;;;;;;;23.10;13.77;;;64.80;2201.60;;;;;;5098390;28;20032;-87
2022/03/20 05:00:25;;;;;;;;;;;64.90;2201.60;;;;;;5113024;28;20031;-88
2022/03/20 05:02:51;;;;;;;28.30;17.30;;;64.70;2201.60;;;;;;5097623;28;19916;-88
2022/03/20 05:05:18;;;;;;;28.75;17.15;;;64.80;2201.60;;;;;;5112833;28;20019;-88
2022/03/20 05:07:43;;;;;;;31.75;17.80;;;64.70;2201.60;;;;;;5097248;28;20027;-88
2022/03/20 05:15:39;;;;;;;25.45;16.55;;;64.80;2201.60;;;;;;5115541;28;20394;-88
2022/03/20 05:18:08;;;;;;;21.05;12.50;;;64.70;2201.60;;;;;;5112447;28;20051;-89
2022/03/20 05:20:34;;;;;;;29.00;16.60;;;64.70;2201.60;;;;;;5097278;28;20024;-87
2022/03/20 05:23:01;;;;;;;37.83;16.95;;;64.80;2201.60;;;;;;5098435;28;20036;-88
2022/03/20 05:25:30;;;;;;;28.33;16.58;;;64.80;2201.60;;;;;;5112662;28;20103;-88
2022/03/20 05:27:57;;;;;;;27.08;15.05;;;64.70;2201.60;;;;;;5097201;28;20030;-88
2022/03/20 05:30:23;;;;;;;30.90;19.13;;;64.70;2201.60;;;;;;5095705;28;20386;-88
2022/03/20 05:32:50;;;;;;;20.02;11.75;;;64.60;2201.60;;;;;;5094381;28;20020;-88
2022/03/20 05:35:16;;;;;;;29.13;19.05;;;64.70;2201.60;;;;;;5097695;28;20037;-89
2022/03/20 05:37:45;;;;;;;25.60;15.25;;;64.70;2201.60;;;;;;5112418;28;20019;-88
2022/03/20 05:40:13;;;;;;;39.15;22.23;;;64.70;2201.60;;;;;;5114215;28;20050;-88
2022/03/20 05:42:38;;;;;;;39.78;23.27;;;64.50;2201.60;;;;;;5113194;28;20035;-87
2022/03/20 05:45:04;;;;;;;41.83;23.25;;;64.40;2201.60;;;;;;5095331;28;20092;-87
2022/03/20 05:47:33;;;;;;;43.47;25.90;;;64.20;2201.60;;;;;;5114241;28;20016;-88
2022/03/20 05:50:00;;;;;;;44.00;25.67;;;64.20;2201.60;;;;;;5094282;28;20641;-82
2022/03/20 05:52:27;;;;;;;37.85;20.80;;;64.00;2201.60;;;;;;5096714;28;20106;-86
2022/03/20 05:54:52;;;;;;;42.20;22.67;;;39.30;2201.60;;;;;;5094235;28;20024;-88
2022/03/20 06:00:03;;;;;;;;;;;64.10;2201.60;;;;;;5112376;28;20436;-87
2022/03/20 06:02:29;;;;;;;38.03;23.08;;;39.20;2201.60;;;;;;5116923;28;20365;-87
2022/03/20 06:04:55;;;;;;;34.50;20.27;;;39.00;2201.60;;;;;;5115461;28;20027;-87
2022/03/20 06:07:20;;;;;;;31.35;20.17;;;38.80;2201.60;;;;;;5094349;28;20019;-87
2022/03/20 06:09:46;;;;;;;42.78;23.90;;;38.90;2201.60;;;;;;5112315;28;20030;-88
2022/03/20 06:12:12;;;;;;;43.92;23.42;;;38.80;2201.60;;;;;;5121812;27;20020;-87
2022/03/20 06:14:38;;;;;;;43.20;23.92;;;38.70;2201.60;;;;;;5097946;28;20041;-87
2022/03/20 06:17:05;;;;;;;44.83;26.27;;;38.60;2201.60;;;;;;5097875;28;20023;-87
2022/03/20 06:19:31;;;;;;;46.22;28.33;;;38.50;2201.60;;;;;;5120341;27;20016;-87
2022/03/20 06:21:57;;;;;;;45.85;29.38;;;13.70;2201.60;;;;;;5098807;28;20459;-89
2022/03/20 06:24:23;;;;;;;47.08;28.30;;;13.50;2201.60;;;;;;5100681;27;20031;-87
2022/03/20 06:26:48;;;;;;;49.72;29.35;;;13.40;2201.60;;;;;;5099712;28;20015;-87
2022/03/20 06:29:15;;;;;;;45.35;27.45;;;13.40;2201.60;;;;;;5117353;27;20106;-89
2022/03/20 06:31:41;;;;;;;41.05;19.38;;;13.30;2201.60;;;;;;5103774;27;20020;-86
2022/03/20 06:34:07;;;;;;;35.80;19.85;;;13.20;2201.60;;;;;;5098874;28;20024;-86
2022/03/20 06:36:33;;;;;;;32.72;20.65;;;13.10;2201.60;;;;;;5097367;28;20034;-88
2022/03/20 06:38:59;;;;;;;37.45;19.42;;;0.00;2201.60;;;;;;5115389;28;20054;-86
2022/03/20 06:41:24;;;;;;;35.05;20.15;;;0.20;2201.60;;;;;;5115331;28;20024;-84
2022/03/20 06:43:50;;;;;;;35.88;20.13;;;0.50;2099.20;;;;;;5097363;28;20462;-89
2022/03/20 06:46:16;;;;;;;38.10;21.58;;;0.60;2048.00;;;;;;5115252;28;20023;-84
2022/03/20 06:48:42;;;;;;;34.60;19.77;;;0.80;1971.20;;;;;;5097128;28;20045;-86
2022/03/20 06:51:07;;;;;;;30.75;21.27;;;25.60;1945.60;;;;;;5115306;28;20475;-87
2022/03/20 06:53:34;;;;;;;37.35;22.42;;;25.70;1920.00;;;;;;5096950;28;20455;-84
2022/03/20 06:56:00;;;;;;;30.10;20.67;;;25.70;1920.00;;;;;;5096763;28;20050;-80
2022/03/20 06:58:27;;;;;;;36.50;21.20;;;25.90;1868.80;;;;;;5096991;28;20020;-87
2022/03/20 07:00:53;;;;;;;28.30;17.80;;;26.10;1843.20;;;;;;5096843;28;20043;-85
2022/03/20 07:03:20;;;;;;;30.80;18.77;;;26.20;1792.00;;;;;;5096589;28;20032;-84
2022/03/20 07:05:46;;;;;;;27.40;17.83;;;26.30;1766.40;;;;;;5099100;28;20416;-85
2022/03/20 07:08:13;;;;;;;27.73;18.17;;;26.40;1766.40;;;;;;5114320;28;20386;-86
2022/03/20 07:10:39;;;;;;;29.77;17.80;;;26.40;1740.80;;;;;;5096766;28;20115;-86
2022/03/20 07:15:51;;;;;;;27.83;18.02;;;51.30;1715.20;;;;;;5120340;27;20390;-87
2022/03/20 07:18:19;;;;;;;31.77;19.85;;;51.40;1689.60;;;;;;5114696;28;20043;-87
2022/03/20 07:20:46;;;;;;;28.42;16.95;;;51.40;1689.60;;;;;;5114369;28;20027;-87
2022/03/20 07:23:13;;;;;;;31.27;18.48;;;51.50;1664.00;;;;;;5113617;28;20054;-88
2022/03/20 07:31:14;;;;;;;25.27;13.95;;;51.80;1587.20;;;;;;5083497;27;20047;-87
2022/03/20 07:33:41;;;;;;;15.95;10.07;;;51.90;1536.00;;;;;;5114362;28;20767;-80
2022/03/20 07:36:08;;;;;;;18.02;11.95;;;52.00;1484.80;;;;;;5120158;27;20015;-87
2022/03/20 07:38:35;;;;;;;19.52;10.88;;;51.90;1510.40;;;;;;5115733;27;20026;-86
2022/03/20 07:41:00;;;;;;;15.48;10.57;;;52.10;1484.80;;;;;;5118261;27;20023;-83
2022/03/20 07:43:26;;;;;;;19.13;10.88;;;76.80;1484.80;;;;;;5104473;28;20038;-85
2022/03/20 07:45:52;;;;;;;20.40;11.50;;;76.80;1459.20;;;;;;5098169;28;20102;-84
2022/03/20 07:48:21;;;;;;;26.02;11.88;;;77.00;1459.20;;;;;;5116687;27;20102;-82
2022/03/20 07:50:47;;;;;;;18.10;11.23;;;77.10;1433.60;;;;;;5114052;28;20059;-86
2022/03/20 07:53:16;;;;;;;18.13;12.43;;;77.20;1433.60;;;;;;5095883;28;20111;-78
2022/03/20 07:55:42;;;;;;;13.63;10.15;;;77.30;1433.60;;;;;;5097709;27;20068;-77
2022/03/20 07:58:08;;;;;;;16.17;10.75;;;77.40;1433.60;;;;;;5097657;27;20020;-79
2022/03/20 08:00:34;;;;;;;19.85;11.15;;;77.40;1408.00;;;;;;5096322;28;20047;-78
2022/03/20 08:03:00;;;;;;;19.42;11.60;;;77.40;1408.00;;;;;;5094498;28;20046;-77
2022/03/20 08:05:27;;;;;;;27.20;13.30;;;77.50;1408.00;;;;;;5112259;28;20019;-78
2022/03/20 08:07:53;;;;;;;19.92;11.25;;;77.60;1382.40;;;;;;5114998;27;20045;-84
2022/03/20 08:10:18;;;;;;;16.20;9.80;;;77.60;1382.40;;;;;;5112542;28;20382;-77
2022/03/20 08:12:44;;;;;;;15.80;9.73;;;102.40;1356.80;;;;;;5121483;27;20025;-79
2022/03/20 08:15:12;;;;;;;17.23;10.48;;;;;;;;;;5094417;28;20043;-77
2022/03/20 08:17:42;;;;;;;17.20;11.40;;;;;;;;;;5112581;28;20019;-78
2022/03/20 08:20:09;;;;;;;18.77;10.77;;;;;;;;;;5077456;28;20016;-78
2022/03/20 08:22:36;;;;;;;13.45;9.57;;;;;;;;;;5097047;28;20015;-79
2022/03/20 08:25:02;;;;;;;14.73;9.73;;;;;;;;;;5115149;27;20058;-79
2022/03/20 08:27:28;;;;;;;18.20;10.40;;;103.00;1305.60;;;;;;5112851;28;20015;-79
2022/03/20 08:29:56;;;;;;;18.30;10.07;;;102.90;1305.60;;;;;;5095941;28;20024;-79
2022/03/20 08:32:22;;;;;;;18.77;11.55;;;102.80;1305.60;;;;;;5093829;28;20422;-77
2022/03/20 08:34:48;;;;;;;17.80;11.13;;;103.00;1331.20;;;;;;5112301;28;20015;-81
2022/03/20 08:37:14;;;;;;;18.92;10.75;;;103.10;1305.60;;;;;;5115147;27;20977;-78
2022/03/20 08:39:40;;;;;;;18.75;11.30;;;103.10;1305.60;;;;;;5112289;28;20058;-78
2022/03/20 08:42:06;;;;;;;13.63;9.30;;;103.10;1331.20;;;;;;5093223;28;20023;-77
2022/03/20 08:44:32;;;;;;;16.65;10.15;;;103.20;1331.20;;;;;;5114794;27;20048;-80
2022/03/20 08:46:58;;;;;;;16.70;7.15;;;103.30;1305.60;;;;;;5093811;28;20115;-80
2022/03/20 08:49:24;;;;;;;14.15;5.63;;;128.10;1228.80;;;;;;5112351;28;20024;-78
2022/03/20 08:51:49;;;;;;;9.93;5.57;;;128.10;1177.60;;;;;;5111896;27;20031;-79
2022/03/20 08:54:15;;;;;;;11.80;5.28;;;128.20;1152.00;;;;;;5094565;28;20026;-78
2022/03/20 08:56:41;;;;;;;31.15;6.50;;;128.20;1152.00;;;;;;5111408;28;20023;-76
2022/03/20 08:59:07;;;;;;;23.45;6.43;;;128.40;1152.00;;;;;;5113664;27;20022;-77
2022/03/20 09:01:33;;;;;;;18.13;6.78;;;128.40;1152.00;;;;;;5111939;28;20015;-80
2022/03/20 09:03:59;;;;;;;26.58;7.03;;;128.80;1152.00;;;;;;5093564;28;20071;-79
2022/03/20 09:06:25;;;;;;;18.95;6.82;;;128.70;1152.00;;;;;;5096401;27;20521;-79
2022/03/20 09:08:53;;;;;;;17.98;7.18;;;128.70;1152.00;;;;;;5111590;28;20103;-78
2022/03/20 09:11:19;;;;;;;16.00;7.50;;;128.90;1152.00;;;;;;5114873;27;20015;-78
2022/03/20 09:13:46;;;;;;;54.42;10.20;;;153.70;1152.00;;;;;;5111370;28;20027;-78
2022/03/20 09:18:59;;;;;;;20.42;8.23;;;128.90;1126.40;;;;;;5114452;28;20035;-80
2022/03/20 09:21:26;;;;;;;24.55;8.65;;;153.70;1126.40;;;;;;5114558;28;20647;-80
2022/03/20 09:23:52;;;;;;;26.23;10.70;;;;;;;;;;5111595;28;20035;-81
2022/03/20 09:26:18;;;;;;;16.45;8.00;;;153.90;1126.40;;;;;;5111593;28;20015;-78
2022/03/20 09:28:45;;;;;;;19.52;8.57;;;153.80;1126.40;;;;;;5113330;28;20027;-81
2022/03/20 09:31:10;;;;;;;20.70;6.18;;;153.70;1152.00;;;;;;5093442;28;20023;-78
2022/03/20 09:33:36;;;;;;;14.82;5.63;;;153.80;1152.00;;;;;;5093369;28;20020;-78
2022/03/20 09:36:02;;;;;;;10.43;6.50;;;153.70;1126.40;;;;;;5111219;28;20420;-77
2022/03/20 09:38:29;;;;;;;13.48;5.97;;;153.90;1126.40;;;;;;5092303;28;20027;-78
2022/03/20 09:40:59;;;;;;;15.95;7.72;;;154.10;1100.80;;;;;;5111073;28;20019;-79
2022/03/20 09:43:25;;;;;;;16.48;5.45;;;154.30;1100.80;;;;;;5110726;28;20127;-80
2022/03/20 09:45:53;;;;;;;8.02;5.10;;;154.10;1075.20;;;;;;5112540;28;20106;-77
2022/03/20 09:48:19;;;;;;;15.68;6.72;;;154.50;1100.80;;;;;;5099675;28;20020;-78
2022/03/20 09:50:47;;;;;;;17.70;8.40;;;154.50;1100.80;;;;;;5117460;27;20470;-78
2022/03/20 09:53:13;;;;;;;9.77;4.82;;;179.20;1100.80;;;;;;5121479;27;20020;-79
2022/03/20 09:55:38;;;;;;;15.18;8.02;;;154.50;1100.80;;;;;;5117675;27;20055;-79
2022/03/20 09:58:04;;;;;;;15.88;8.18;;;179.20;1100.80;;;;;;5127616;27;20023;-78
2022/03/20 10:00:32;;;;;;;10.07;5.85;;;179.20;1075.20;;;;;;5131383;27;20389;-78
2022/03/20 10:02:57;;;;;;;14.52;7.53;;;179.30;1049.60;;;;;;5115413;28;20035;-80
2022/03/20 10:05:27;;;;;;;13.07;6.32;;;179.30;1075.20;;;;;;5114863;28;20394;-77
2022/03/20 10:07:53;;;;;;;11.52;6.10;;;179.60;1075.20;;;;;;5099556;28;20386;-77
2022/03/20 10:10:28;;;;;;;10.85;6.68;;;179.60;1075.20;;;;;;5113594;27;20020;-78
2022/03/20 10:12:57;;;;;;;10.63;5.28;;;179.80;1049.60;;;;;;5117163;27;20435;-78
2022/03/20 10:15:38;;;;;;;11.05;5.75;;;179.70;1075.20;;;;;;5120785;27;20028;-78
2022/03/20 10:18:20;;;;;;;7.80;5.30;;;179.60;1049.60;;;;;;5114677;28;20023;-78
2022/03/20 10:20:57;;;;;;;16.52;7.00;;;180.00;1024.00;;;;;;5115809;27;20103;-78
2022/03/20 10:23:41;;;;;;;9.05;6.25;;;179.90;1049.60;;;;;;5120543;27;20031;-78
2022/03/20 10:26:11;;;;;;;;;;;180.00;1024.00;;;;;;5114156;27;20138;-80
2022/03/20 10:28:42;;;;;;;14.38;5.47;;;180.10;1049.60;;;;;;5112341;27;19935;-79
2022/03/20 10:31:11;;;;;;;12.70;5.18;;;180.10;1049.60;;;;;;5102366;28;20072;-78
2022/03/20 10:33:41;;;;;;;9.63;6.57;;;180.10;1024.00;;;;;;5116747;27;20015;-79
2022/03/20 10:36:18;;;;;;;12.32;5.57;;;204.80;1024.00;;;;;;5096917;28;20062;-77
2022/03/20 10:38:47;;;;;;;13.43;6.55;;;205.00;1024.00;;;;;;5115380;27;20072;-77
2022/03/20 10:41:27;;;;;;;13.07;8.65;;;205.00;1024.00;;;;;;5114016;27;20059;-79
2022/03/20 10:43:57;;;;;;;11.15;6.78;;;205.20;1024.00;;;;;;5098247;27;20470;-78
2022/03/20 10:46:31;;;;;;;12.20;6.53;;;205.30;1024.00;;;;;;5115097;27;20027;-78
2022/03/20 10:49:02;;;;;;;15.15;6.57;;;205.10;1024.00;;;;;;5123285;27;20020;-79
2022/03/20 10:51:39;;;;;;;15.18;5.85;;;;;;;;;;5099078;28;20020;-79
2022/03/20 10:54:11;;;;;;;9.82;6.13;;;;;;;;;;5113858;28;20034;-78
2022/03/20 10:56:38;;;;;;;12.00;7.25;;;;;;;;;;5101041;28;20102;-79
2022/03/20 10:59:23;;;;;;;19.77;7.32;;;;;;;;;;5096599;28;20026;-78
2022/03/20 11:01:49;;;;;;;11.73;6.97;;;;;;;;;;5113651;28;20099;-78
2022/03/20 11:04:15;;;;;;;11.27;6.90;;;;;;;;;;5095315;28;20447;-78
2022/03/20 11:06:43;;;;;;;11.10;6.88;;;;;;;;;;5115304;28;20028;-80
2022/03/20 11:09:09;;;;;;;8.95;5.88;;;281.90;870.40;;;;;;5096400;28;20381;-78
2022/03/20 11:11:39;;;;;;;11.52;5.53;;;281.70;896.00;;;;;;5096466;28;20122;-80
2022/03/20 11:14:06;;;;;;;10.40;6.47;;;;;;;;;;5114545;28;20062;-79
2022/03/20 11:16:36;;;;;;;22.08;8.70;;;;;;;;;;5096615;28;20027;-79
2022/03/20 11:19:03;;;;;;;8.57;6.07;;;;;;;;;;5114510;28;20020;-79
2022/03/20 11:21:30;;;;;;;9.88;6.38;;;;;;;;;;5096164;28;20023;-79
2022/03/20 11:23:58;;;;;;;11.93;5.95;;;;;;;;;;5095921;28;20065;-78
2022/03/20 11:26:26;;;;;;;10.57;7.55;;;;;;;;;;5114235;28;20323;-79
2022/03/20 11:28:56;;;;;;;9.52;6.57;;;;;;;;;;5101837;27;20057;-78
2022/03/20 11:31:22;;;;;;;15.02;10.82;;;;;;;;;;5114414;27;20120;-78
2022/03/20 11:33:49;;;;;;;16.08;12.35;;;;;;;;;;5114646;28;20024;-79
2022/03/20 11:36:15;;;;;;;9.10;7.30;;;;;;;;;;5096348;28;20085;-80
2022/03/20 11:38:41;;;;;;;24.67;18.50;;;;;;;;;;5114530;28;20085;-78
2022/03/20 11:41:07;;;;;;;28.23;23.23;;;;;;;;;;5096343;28;20024;-79
2022/03/20 11:43:34;;;;;;;16.55;12.30;;;;;;;;;;5098993;28;20116;-78
2022/03/20 11:46:21;;;;;;;28.92;19.58;;;;;;;;;;5097111;28;20051;-79
2022/03/20 11:49:06;;;;;;;20.05;12.55;;;;;;;;;;5115045;27;20027;-79
2022/03/20 11:51:55;;;;;;;12.52;10.23;;;;;;;;;;5117053;27;20026;-76
2022/03/20 11:54:21;;;;;;;27.15;19.95;;;;;;;;;;5119882;27;20110;-78
2022/03/20 11:56:48;;;;;;;11.30;7.88;;;;;;;;;;5116282;27;20508;-76
2022/03/20 11:59:32;;;;;;;15.05;11.05;;;;;;;;;;5125810;27;20019;-78
2022/03/20 12:02:03;;;;;;;17.70;12.77;;;256.30;870.40;;;;;;5112762;28;20023;-76
2022/03/20 12:04:38;;;;;;;20.45;12.90;;;;;;;;;;5114966;27;20043;-75
2022/03/20 12:07:12;;;;;;;17.38;10.52;;;231.20;921.60;;;;;;5114896;27;20058;-77
2022/03/20 12:09:44;;;;;;;9.75;7.93;;;256.20;896.00;;;;;;5121702;27;20408;-79
2022/03/20 12:12:44;;;;;;;14.98;10.02;;;256.50;921.60;;;;;;5123151;27;20504;-77
2022/03/20 12:15:11;;;;;;;15.13;8.60;;;307.40;870.40;;;;;;5112265;28;20023;-77
2022/03/20 12:18:03;;;;;;;13.73;8.77;;;281.70;844.80;;;;;;5111812;28;20152;-77
2022/03/20 12:21:00;;;;;;;20.25;11.88;;;256.90;870.40;;;;;;5092913;27;20465;-77
2022/03/20 12:23:37;;;;;;;18.58;9.02;;;332.90;844.80;;;;;;5127474;27;20027;-77
2022/03/20 12:26:41;;;;;;;12.13;8.57;;;;;;;;;;5113524;27;20054;-77
2022/03/20 12:29:29;;;;;;;25.77;13.68;;;359.30;793.60;;;;;;5098794;28;20027;-79
2022/03/20 12:32:06;;;;;;;15.10;9.38;;;;;;;;;;5112624;28;20414;-78
2022/03/20 12:34:32;;;;;;;12.13;7.63;;;409.60;793.60;;;;;;5094725;28;20023;-75
2022/03/20 12:37:29;;;;;;;12.35;7.07;;;410.00;742.40;;;;;;5094634;28;20103;-76
2022/03/20 12:39:56;;;;;;;15.90;8.77;;;410.40;742.40;;;;;;5120498;27;20043;-76
2022/03/20 12:42:23;;;;;;;8.65;6.30;;;;;;;;;;5132931;27;20026;-78
2022/03/20 12:44:50;;;;;;;11.18;6.80;;;;;;;;;;5113501;27;20060;-76
2022/03/20 12:47:17;;;;;;;14.27;7.38;;;;;;;;;;5134062;27;20408;-76
2022/03/20 12:49:43;;;;;;;14.75;8.15;;;;;;;;;;5130335;27;20481;-78
2022/03/20 12:52:10;;;;;;;26.48;18.10;;;;;;;;;;5121396;27;20022;-76
2022/03/20 12:54:36;;;;;;;12.10;7.00;;;;;;;;;;5121474;27;20096;-76
2022/03/20 12:57:04;;;;;;;9.15;6.72;;;;;;;;;;5132420;27;20020;-78
2022/03/20 12:59:30;;;;;;;11.20;5.75;;;;;;;;;;5132284;27;20019;-78
2022/03/20 13:01:57;;;;;;;8.80;5.68;;;;;;;;;;5113612;27;20026;-76
2022/03/20 13:04:24;;;;;;;9.60;6.50;;;;;;;;;;5113969;27;20043;-76
2022/03/20 13:06:51;;;;;;;7.35;5.53;;;;;;;;;;5114825;27;20023;-75
2022/03/20 13:09:17;;;;;;;8.13;6.07;;;;;;;;;;5114606;27;20015;-75
2022/03/20 13:11:53;;;;;;;10.30;6.85;;;;;;;;;;5114633;27;20060;-76
2022/03/20 13:14:21;;;;;;;13.45;7.80;;;;;;;;;;5132707;27;20093;-79
2022/03/20 13:16:58;;;;;;;11.32;6.30;;;;;;;;;;5103014;28;20053;-77
2022/03/20 13:19:25;;;;;;;10.43;7.22;;;;;;;;;;5094162;28;20027;-76